Pagrindinis puslapis
METAR-TAF:

METAR-TAF

Oro uostai :

Rodrigesas, Mauricijus

platuma: 19-41S, ilguma: 063-25E, Aukštis: 58 m

Dabartinis oras

Ataskaita buvo paskelbta 3 valandos ir 23 minutes, ne 18:00 UTC
Vėjas 8 kt iš Rytų
Temperatūra 22°C
Drėgmė 83%
Slėgis 1019 hPa
Matomumas 10 km arba daugiau
Mažai debesys ne aukštis 1800 ft

METAR: FIMR 171800Z 09008KT 9999 FEW018 22/19 Q1019

Laikas: 01:23 (21:23 UTC)

Prognozė

Ataskaita buvo paskelbta 3 valandos ir 58 minutes, ne 17:25 UTC
Prognozė galioja nuo 17 metu 18 UTC su 18 metu 12 UTC
Vėjas 10 kt iš Rytų
Matomumas 10 km arba daugiau
Išsisklaidę debesys ne aukštis 1800 ft
Tikimybė 30% :
Laikinai
nuo 18 metu 06 UTC su 18 metu 12 UTC
Matomumas: 7000 m
Su prošvaistėmis ne aukštis 1500 ft
lietus

TAF: FIMR 171725Z 1718/1812 09010KT 9999 SCT018 PROB30 TEMPO 1806/1812 7000 -SHRA BKN015

Orai ataskaitas ir orų prognozės (METAR, TAF).

turimą stotys yra geltonos ir raudonos taškus žemėlapyje.

Perkelti pele per norėdami pamatyti stoties vardą.

Tada spustelėkite, norėdami matyti oro stebėjimo ir prognozės.

Norėdami pakeisti žemėlapį: spustelėkite ant žalios mygtukų su juodo kryžiaus žemyn,; žalią mygtuką su brūkšneliu, jei norite nutolinti; arba žalių rodyklių gretimoms žemėlapius.


METAR-TAF: